This is the latest recevied weather packets stored in our database for station/object Kirchdorf. If no packets are shown the sender has not sent any weather packets the latest 10 day(s).
| Time | Temp. | Humidity | Pressure | Rain* | Wind** | Luminosity | Snow |
|---|---|---|---|---|---|---|---|
| 1788019330 | 23.33° C | 54% | 1015.8 hPa | 0.25 mm | - | - | - |
| 1788017530 | 22.78° C | 55% | 1016.1 hPa | 0.25 mm | - | - | - |
| 1788015731 | 23.33° C | 58% | 1016.1 hPa | 0.25 mm | - | - | - |
| 1788013932 | 23.89° C | 56% | 1016.1 hPa | 0.25 mm | - | - | - |
| 1788012130 | 22.78° C | 56% | 1016.4 hPa | 0.25 mm | - | - | - |
| 1788010330 | 23.33° C | 55% | 1016.4 hPa | 0.25 mm | - | - | - |
| 1788008530 | 23.89° C | 54% | 1016.4 hPa | 0.25 mm | - | - | - |
| 1788006730 | 22.22° C | 56% | 1016.8 hPa | 0.25 mm | - | - | - |
| 1788004930 | 22.78° C | 60% | 1017.1 hPa | 0.25 mm | - | - | - |
| 1788003130 | 23.33° C | 60% | 1017.2 hPa | 0.25 mm | - | - | - |
| 1788001329 | 22.78° C | 62% | 1017.4 hPa | 0.25 mm | - | - | - |
| 1787999530 | 20.56° C | 67% | 1017.6 hPa | 0.25 mm | - | - | - |
| 1787997730 | 21.67° C | 67% | 1017.8 hPa | 0.25 mm | - | - | - |
| 1787995930 | 21.11° C | 70% | 1018.2 hPa | 0.25 mm | - | - | - |
| 1787994130 | 20.56° C | 72% | 1018.2 hPa | 0.25 mm | - | - | - |
| 1787992330 | 18.89° C | 76% | 1018.1 hPa | 0.25 mm | - | - | - |
| 1787990530 | 18.89° C | 78% | 1018 hPa | 0.25 mm | - | - | - |
| 1787988729 | 17.78° C | 82% | 1018.1 hPa | 0.25 mm | - | - | - |
| 1787986930 | 16.67° C | 88% | 1018 hPa | 0.25 mm | - | - | - |
| 1787985130 | 15.56° C | 91% | 1018.1 hPa | 0.25 mm | - | - | - |
| 1787983330 | 14.44° C | 95% | 1018 hPa | 0.25 mm | - | - | - |
| 1787981530 | 13.33° C | 96% | 1017.8 hPa | 0.25 mm | - | - | - |
| 1787979730 | 12.78° C | 96% | 1017.6 hPa | 0.25 mm | - | - | - |
| 1787977930 | 12.78° C | 95% | 1017.3 hPa | 0.25 mm | - | - | - |
| 1787976129 | 13.33° C | 95% | 1017.2 hPa | 0.25 mm | - | - | - |
* Rain since midnight (hover to see other rain measurements)
** Current wind speed in m/s (hover to see current wind gust speed)